createdAt,value
2018-05-15T00:01:46.741Z,16.50
2018-05-15T00:04:15.285Z,16.57
2018-05-15T00:06:43.809Z,17.73
2018-05-15T00:09:12.293Z,17.27
2018-05-15T00:11:40.808Z,16.63
2018-05-15T00:14:09.289Z,17.90
2018-05-15T00:16:37.812Z,17.87
2018-05-15T00:19:06.353Z,18.73
2018-05-15T00:21:34.876Z,18.20
2018-05-15T00:24:03.400Z,16.77
2018-05-15T00:26:31.883Z,17.80
2018-05-15T00:29:00.420Z,17.43
2018-05-15T00:31:28.949Z,18.53
2018-05-15T00:33:57.514Z,17.97
2018-05-15T00:36:25.993Z,18.37
2018-05-15T00:38:54.460Z,16.80
2018-05-15T00:41:22.989Z,17.13
2018-05-15T00:43:51.488Z,18.83
2018-05-15T00:46:19.960Z,19.00
2018-05-15T00:48:48.439Z,19.10
2018-05-15T00:51:17.015Z,18.17
2018-05-15T00:53:45.597Z,17.60
2018-05-15T00:56:14.120Z,16.83
2018-05-15T00:58:42.661Z,17.30
2018-05-15T01:01:11.177Z,17.13
2018-05-15T01:03:39.665Z,17.30
2018-05-15T01:06:08.196Z,16.93
2018-05-15T01:08:36.708Z,16.73
2018-05-15T01:11:05.268Z,17.13
2018-05-15T01:13:33.876Z,17.03
2018-05-15T01:16:02.460Z,17.03
2018-05-15T01:18:30.950Z,18.23
2018-05-15T01:20:59.517Z,18.27
2018-05-15T01:23:28.040Z,17.83
2018-05-15T01:25:56.565Z,17.60
2018-05-15T01:28:25.051Z,17.70
2018-05-15T01:30:53.545Z,17.17
2018-05-15T01:33:22.072Z,17.77
2018-05-15T01:35:50.553Z,19.10
2018-05-15T01:38:19.073Z,16.80
2018-05-15T01:40:47.598Z,18.70
2018-05-15T01:43:16.064Z,16.43
2018-05-15T01:45:44.576Z,14.83
2018-05-15T01:48:13.048Z,12.57
2018-05-15T01:50:41.578Z,11.80
2018-05-15T01:53:10.049Z,13.30
2018-05-15T01:55:38.587Z,15.23
2018-05-15T01:58:07.080Z,13.53
2018-05-15T02:00:35.596Z,12.03
2018-05-15T02:03:04.112Z,17.60
2018-05-15T02:05:32.620Z,12.87
2018-05-15T02:08:01.123Z,14.23
2018-05-15T02:10:29.640Z,11.70
2018-05-15T02:12:58.129Z,13.83
2018-05-15T02:15:26.608Z,13.30
2018-05-15T02:17:55.129Z,13.53
2018-05-15T02:20:23.589Z,13.13
2018-05-15T02:22:52.074Z,19.97
2018-05-15T02:25:20.593Z,18.43
2018-05-15T02:27:49.109Z,16.90
2018-05-15T02:30:17.579Z,14.63
2018-05-15T02:32:46.096Z,16.90
2018-05-15T02:35:14.626Z,17.03
2018-05-15T02:37:43.086Z,17.10
2018-05-15T02:40:11.599Z,16.33
2018-05-15T02:42:40.113Z,18.33
2018-05-15T02:45:08.628Z,15.73
2018-05-15T02:47:37.104Z,17.53
2018-05-15T02:50:05.621Z,18.73
2018-05-15T02:52:34.109Z,17.23
2018-05-15T02:55:02.626Z,18.13
2018-05-15T02:57:31.183Z,17.70
2018-05-15T02:59:59.654Z,17.40
2018-05-15T03:02:28.157Z,21.03
2018-05-15T03:04:56.676Z,25.03
2018-05-15T03:07:25.183Z,21.03
2018-05-15T03:09:53.666Z,18.30
2018-05-15T03:12:22.212Z,19.73
2018-05-15T03:14:50.697Z,18.63
2018-05-15T03:17:19.196Z,20.97
2018-05-15T03:19:47.665Z,20.03
2018-05-15T03:22:16.180Z,21.20
2018-05-15T03:24:44.647Z,22.03
2018-05-15T03:27:13.115Z,23.23
2018-05-15T03:29:41.640Z,24.27
2018-05-15T03:32:10.176Z,24.40
2018-05-15T03:34:38.649Z,24.27
2018-05-15T03:37:07.155Z,23.20
2018-05-15T03:39:35.651Z,22.50
2018-05-15T03:42:04.144Z,24.70
2018-05-15T03:44:32.676Z,22.60
2018-05-15T03:47:01.166Z,22.97
2018-05-15T03:49:29.661Z,23.83
2018-05-15T03:51:58.141Z,29.70
2018-05-15T03:54:26.612Z,44.13
2018-05-15T03:56:55.168Z,47.07
2018-05-15T03:59:23.620Z,30.27
2018-05-15T04:02:03.807Z,25.63
2018-05-15T04:04:43.889Z,22.07
2018-05-15T04:07:24.112Z,21.93
2018-05-15T04:09:52.619Z,22.50
2018-05-15T04:12:21.140Z,22.17
2018-05-15T04:14:49.657Z,21.23
2018-05-15T04:17:18.181Z,20.97
2018-05-15T04:19:46.688Z,21.70
2018-05-15T04:22:15.162Z,19.93
2018-05-15T04:24:43.632Z,20.83
2018-05-15T04:27:12.146Z,20.77
2018-05-15T04:29:40.629Z,20.23
2018-05-15T04:32:09.144Z,20.70
2018-05-15T04:34:37.609Z,21.00
2018-05-15T04:37:06.140Z,21.40
2018-05-15T04:39:34.608Z,18.47
2018-05-15T04:42:03.050Z,19.70
2018-05-15T04:44:31.560Z,20.17
2018-05-15T04:47:00.041Z,19.70
2018-05-15T04:49:28.545Z,18.93
2018-05-15T04:51:57.024Z,17.37
2018-05-15T04:54:25.537Z,18.27
2018-05-15T04:56:54.048Z,17.90
2018-05-15T04:59:22.557Z,19.47
2018-05-15T05:01:51.018Z,18.90
2018-05-15T05:04:19.528Z,18.83
2018-05-15T05:06:47.988Z,15.73
2018-05-15T05:09:16.506Z,17.97
2018-05-15T05:11:45.111Z,16.37
2018-05-15T05:14:13.577Z,16.33
2018-05-15T05:16:42.041Z,17.23
2018-05-15T05:19:10.576Z,15.97
2018-05-15T05:21:39.056Z,16.87
2018-05-15T05:24:07.812Z,16.07
2018-05-15T05:26:36.492Z,17.10
2018-05-15T05:29:06.604Z,16.47
2018-05-15T05:31:35.090Z,22.13
2018-05-15T05:34:03.556Z,24.30
2018-05-15T05:36:32.089Z,20.13
2018-05-15T05:39:00.565Z,20.23
2018-05-15T05:41:30.517Z,19.13
2018-05-15T05:43:59.092Z,16.60
2018-05-15T05:46:27.669Z,16.53
2018-05-15T05:48:56.164Z,16.27
2018-05-15T05:51:24.637Z,16.47
2018-05-15T05:53:53.148Z,16.60
2018-05-15T05:56:21.622Z,16.83
2018-05-15T05:58:50.127Z,16.40
2018-05-15T06:01:18.638Z,15.90
2018-05-15T06:03:48.103Z,17.87
2018-05-15T06:06:16.644Z,18.23
2018-05-15T06:08:45.108Z,16.77
2018-05-15T06:11:13.617Z,16.67
2018-05-15T06:13:42.089Z,16.57
2018-05-15T06:16:10.663Z,16.87
2018-05-15T06:18:39.204Z,16.50
2018-05-15T06:21:07.757Z,17.80
2018-05-15T06:23:36.295Z,17.10
2018-05-15T06:26:04.833Z,16.70
2018-05-15T06:28:33.360Z,16.70
2018-05-15T06:31:01.889Z,16.43
2018-05-15T06:33:30.378Z,15.53
2018-05-15T06:35:58.959Z,16.73
2018-05-15T06:38:28.449Z,16.97
2018-05-15T06:40:56.943Z,19.17
2018-05-15T06:43:25.499Z,16.20
2018-05-15T06:45:54.041Z,17.57
2018-05-15T06:48:22.549Z,18.50
2018-05-15T06:50:51.012Z,16.73
2018-05-15T06:53:19.527Z,16.13
2018-05-15T06:55:48.017Z,15.57
2018-05-15T06:58:16.544Z,16.20
2018-05-15T07:00:45.072Z,17.37
2018-05-15T07:03:13.609Z,15.60
2018-05-15T07:05:42.129Z,15.97
2018-05-15T07:08:10.732Z,15.33
2018-05-15T07:10:39.256Z,14.67
2018-05-15T07:13:07.739Z,19.20
2018-05-15T07:15:36.244Z,15.10
2018-05-15T07:18:04.856Z,14.67
2018-05-15T07:20:33.373Z,16.23
2018-05-15T07:23:01.969Z,15.93
2018-05-15T07:25:30.473Z,13.70
2018-05-15T07:27:59.020Z,13.73
2018-05-15T07:30:27.536Z,14.80
2018-05-15T07:32:56.062Z,14.50
2018-05-15T07:35:24.576Z,15.13
2018-05-15T07:37:53.065Z,13.93
2018-05-15T07:40:21.681Z,14.90
2018-05-15T07:42:50.167Z,14.67
2018-05-15T07:45:18.693Z,16.07
2018-05-15T07:47:47.208Z,14.57
2018-05-15T07:50:15.715Z,15.03
2018-05-15T07:52:44.224Z,15.70
2018-05-15T07:55:12.771Z,17.50
2018-05-15T07:57:41.309Z,13.93
2018-05-15T08:00:09.772Z,13.20
2018-05-15T08:02:38.280Z,15.27
2018-05-15T08:05:06.780Z,14.53
2018-05-15T08:07:35.304Z,14.23
2018-05-15T08:10:03.810Z,14.53
2018-05-15T08:12:32.293Z,13.30
2018-05-15T08:15:00.776Z,13.80
2018-05-15T08:17:29.333Z,13.67
2018-05-15T08:19:57.811Z,15.00
2018-05-15T08:22:26.393Z,13.30
2018-05-15T08:24:54.817Z,13.07
2018-05-15T08:27:23.305Z,13.73
2018-05-15T08:29:51.802Z,13.30
2018-05-15T08:32:20.336Z,12.70
2018-05-15T08:34:48.956Z,12.47
2018-05-15T08:37:17.848Z,11.33
2018-05-15T08:39:46.554Z,13.40
2018-05-15T08:42:15.496Z,12.40
2018-05-15T08:44:44.353Z,12.00
2018-05-15T08:47:12.921Z,12.77
2018-05-15T08:49:41.393Z,10.90
2018-05-15T08:52:10.025Z,11.07
2018-05-15T08:54:38.624Z,11.40
2018-05-15T08:57:07.134Z,12.73
2018-05-15T08:59:35.690Z,12.37
2018-05-15T09:02:04.325Z,24.97
2018-05-15T09:04:32.828Z,10.93
2018-05-15T09:07:01.906Z,11.93
2018-05-15T09:09:31.004Z,13.10
2018-05-15T09:12:00.023Z,12.53
2018-05-15T09:14:28.914Z,12.37
2018-05-15T09:16:57.584Z,11.67
2018-05-15T09:19:26.350Z,12.63
2018-05-15T09:21:55.053Z,12.27
2018-05-15T09:24:23.636Z,12.60
2018-05-15T09:26:52.305Z,12.27
2018-05-15T09:29:20.878Z,12.47
2018-05-15T09:31:49.438Z,12.37
2018-05-15T09:34:18.130Z,11.30
2018-05-15T09:36:46.693Z,12.23
2018-05-15T09:39:16.012Z,11.53
2018-05-15T09:41:44.592Z,12.07
2018-05-15T09:44:13.156Z,11.73
2018-05-15T09:46:41.739Z,12.80
2018-05-15T09:49:10.428Z,12.83
2018-05-15T09:51:39.163Z,12.20
2018-05-15T09:54:07.936Z,12.83
2018-05-15T09:56:36.678Z,13.33
2018-05-15T09:59:05.367Z,12.00
2018-05-15T10:01:33.872Z,11.10
2018-05-15T10:04:02.457Z,11.90
2018-05-15T10:06:30.953Z,11.37
2018-05-15T10:08:59.533Z,12.13
2018-05-15T10:11:28.268Z,11.80
2018-05-15T10:13:56.829Z,12.23
2018-05-15T10:16:25.534Z,11.37
2018-05-15T10:18:54.089Z,11.23
2018-05-15T10:21:22.693Z,12.30
2018-05-15T10:23:51.383Z,11.70
2018-05-15T10:26:20.380Z,12.33
2018-05-15T10:28:49.325Z,11.77
2018-05-15T10:31:18.387Z,11.10
2018-05-15T10:33:47.632Z,11.23
2018-05-15T10:36:17.050Z,11.50
2018-05-15T10:38:45.683Z,12.23
2018-05-15T10:41:14.195Z,11.60
2018-05-15T10:43:42.724Z,11.27
2018-05-15T10:46:11.275Z,11.27
2018-05-15T10:48:40.171Z,11.80
2018-05-15T10:51:08.991Z,11.43
2018-05-15T10:53:37.973Z,12.43
2018-05-15T10:56:06.769Z,11.87
2018-05-15T10:58:35.503Z,12.17
2018-05-15T11:01:04.051Z,12.10
2018-05-15T11:03:32.764Z,12.03
2018-05-15T11:06:01.387Z,11.43
2018-05-15T11:08:30.086Z,12.60
2018-05-15T11:10:58.752Z,12.10
2018-05-15T11:13:27.388Z,11.83
2018-05-15T11:15:55.978Z,13.53
2018-05-15T11:18:44.435Z,12.27
2018-05-15T11:21:25.036Z,12.03
2018-05-15T11:26:58.188Z,24.90
2018-05-15T11:29:26.869Z,11.37
2018-05-15T11:31:55.683Z,12.73
2018-05-15T11:34:24.434Z,12.40
2018-05-15T11:36:53.278Z,12.33
2018-05-15T11:39:21.886Z,13.10
2018-05-15T11:41:50.575Z,13.07
2018-05-15T11:44:19.112Z,13.53
2018-05-15T11:46:47.589Z,12.00
2018-05-15T11:49:16.979Z,10.97
2018-05-15T11:51:46.466Z,9.37
2018-05-15T11:54:14.396Z,11.83
2018-05-15T11:56:43.813Z,11.03
2018-05-15T11:59:12.405Z,8.93
2018-05-15T12:01:40.939Z,9.47
2018-05-15T12:04:09.514Z,10.17
2018-05-15T12:06:38.179Z,9.00
2018-05-15T12:09:06.842Z,9.70
2018-05-15T12:11:35.577Z,8.70
2018-05-15T12:14:04.279Z,9.00
2018-05-15T12:16:32.857Z,12.13
2018-05-15T12:19:01.548Z,10.23
2018-05-15T12:21:30.206Z,11.27
2018-05-15T12:23:58.847Z,9.83
2018-05-15T12:26:27.486Z,12.50
2018-05-15T12:28:56.117Z,9.53
2018-05-15T12:31:24.658Z,9.77
2018-05-15T12:33:53.320Z,10.50
2018-05-15T12:36:22.418Z,10.70
2018-05-15T12:38:51.115Z,15.40
2018-05-15T12:41:19.662Z,9.27
2018-05-15T12:43:49.037Z,9.97
2018-05-15T12:46:17.601Z,10.97
2018-05-15T12:48:46.436Z,9.17
2018-05-15T12:51:14.859Z,8.30
2018-05-15T12:53:43.453Z,8.73
2018-05-15T12:56:12.072Z,8.83
2018-05-15T12:58:40.778Z,8.60
2018-05-15T13:01:09.456Z,8.90
2018-05-15T13:03:38.114Z,9.70
2018-05-15T13:06:07.972Z,8.90
2018-05-15T13:08:36.614Z,8.47
2018-05-15T13:11:05.109Z,8.17
2018-05-15T13:13:34.031Z,9.20
2018-05-15T13:16:03.045Z,9.47
2018-05-15T13:18:31.755Z,8.30
2018-05-15T13:21:00.506Z,8.00
2018-05-15T13:23:29.097Z,7.90
2018-05-15T13:25:57.634Z,8.50
2018-05-15T13:28:26.302Z,11.30
2018-05-15T13:30:54.836Z,8.40
2018-05-15T13:33:23.313Z,7.43
2018-05-15T13:35:51.825Z,9.93
2018-05-15T13:38:20.423Z,9.27
2018-05-15T13:40:49.096Z,9.17
2018-05-15T13:43:17.715Z,9.00
2018-05-15T13:45:46.481Z,8.27
2018-05-15T13:48:15.113Z,9.63
2018-05-15T13:50:43.797Z,13.73
2018-05-15T13:53:12.387Z,8.60
2018-05-15T13:55:41.028Z,16.00
2018-05-15T13:58:09.746Z,8.73
2018-05-15T14:00:38.338Z,9.03
2018-05-15T14:03:06.971Z,9.97
2018-05-15T14:05:35.683Z,8.33
2018-05-15T14:08:04.236Z,8.77
2018-05-15T14:10:32.976Z,6.37
2018-05-15T14:13:01.863Z,6.90
2018-05-15T14:15:30.997Z,7.00
2018-05-15T14:18:00.249Z,8.73
2018-05-15T14:20:29.299Z,7.23
2018-05-15T14:22:57.925Z,8.83
2018-05-15T14:25:26.527Z,9.33
2018-05-15T14:27:55.166Z,6.90
2018-05-15T14:30:23.851Z,6.90
2018-05-15T14:32:52.447Z,7.53
2018-05-15T14:35:21.012Z,6.73
2018-05-15T14:37:49.629Z,6.73
2018-05-15T14:40:18.407Z,9.17
2018-05-15T14:42:58.733Z,7.67
2018-05-15T14:45:27.162Z,6.77
2018-05-15T14:47:55.640Z,8.53
2018-05-15T14:50:24.175Z,10.57
2018-05-15T14:52:52.742Z,12.37
2018-05-15T14:55:21.193Z,7.77
2018-05-15T14:57:49.786Z,9.50
2018-05-15T15:00:18.302Z,16.87
2018-05-15T15:02:46.778Z,8.90
2018-05-15T15:05:15.305Z,11.97
2018-05-15T15:07:43.799Z,14.77
2018-05-15T15:10:12.277Z,8.80
2018-05-15T15:12:40.788Z,8.07
2018-05-15T15:15:09.241Z,7.23
2018-05-15T15:17:37.749Z,10.30
2018-05-15T15:20:06.241Z,9.27
2018-05-15T15:22:34.762Z,12.30
2018-05-15T15:25:03.249Z,8.40
2018-05-15T15:27:31.796Z,15.67
2018-05-15T15:30:00.276Z,9.20
2018-05-15T15:32:28.792Z,10.33
2018-05-15T15:34:57.283Z,9.30
2018-05-15T15:37:25.788Z,9.50
2018-05-15T15:39:54.252Z,9.43
2018-05-15T15:42:22.840Z,10.80
2018-05-15T15:44:51.304Z,9.43
2018-05-15T15:47:19.846Z,7.63
2018-05-15T15:49:48.368Z,7.90
2018-05-15T15:52:16.856Z,12.23
2018-05-15T15:54:45.369Z,8.63
2018-05-15T15:57:13.838Z,8.73
2018-05-15T15:59:42.347Z,8.00
2018-05-15T16:02:10.816Z,9.00
2018-05-15T16:04:39.337Z,9.77
2018-05-15T16:07:07.816Z,7.93
2018-05-15T16:09:36.311Z,7.70
2018-05-15T16:12:04.839Z,8.30
2018-05-15T16:14:33.320Z,7.53
2018-05-15T16:17:01.831Z,7.23
2018-05-15T16:19:30.377Z,8.27
2018-05-15T16:21:58.908Z,8.70
2018-05-15T16:24:27.372Z,7.77
2018-05-15T16:26:55.886Z,7.50
2018-05-15T16:29:24.401Z,7.80
2018-05-15T16:31:52.876Z,8.30
2018-05-15T16:34:21.402Z,9.97
2018-05-15T16:36:49.877Z,9.27
2018-05-15T16:39:18.342Z,9.07
2018-05-15T16:41:46.852Z,7.67
2018-05-15T16:44:15.364Z,9.63
2018-05-15T16:46:43.821Z,11.40
2018-05-15T16:49:12.325Z,8.50
2018-05-15T16:51:40.801Z,9.27
2018-05-15T16:54:09.313Z,8.00
2018-05-15T16:56:37.780Z,9.30
2018-05-15T16:59:06.284Z,8.97
2018-05-15T17:01:34.757Z,14.27
2018-05-15T17:04:03.283Z,10.00
2018-05-15T17:06:31.765Z,12.10
2018-05-15T17:09:00.288Z,12.63
2018-05-15T17:11:28.776Z,7.97
2018-05-15T17:13:57.253Z,9.03
2018-05-15T17:16:25.805Z,9.40
2018-05-15T17:18:54.284Z,12.23
2018-05-15T17:21:22.808Z,12.20
2018-05-15T17:23:51.320Z,13.83
2018-05-15T17:26:19.807Z,12.83
2018-05-15T17:28:49.028Z,12.87
2018-05-15T17:31:17.601Z,15.57
2018-05-15T17:33:46.096Z,18.13
2018-05-15T17:36:14.601Z,12.50
2018-05-15T17:38:43.115Z,23.03
2018-05-15T17:41:11.596Z,24.30
2018-05-15T17:43:40.132Z,15.67
2018-05-15T17:46:08.639Z,12.67
2018-05-15T17:48:37.136Z,19.07
2018-05-15T17:51:05.660Z,15.20
2018-05-15T17:53:34.172Z,13.00
2018-05-15T17:56:02.701Z,11.43
2018-05-15T17:58:31.180Z,20.30
2018-05-15T18:00:59.704Z,15.47
2018-05-15T18:03:28.208Z,12.37
2018-05-15T18:05:56.750Z,17.47
2018-05-15T18:08:25.299Z,11.90
2018-05-15T18:10:53.837Z,19.73
2018-05-15T18:13:22.364Z,13.97
2018-05-15T18:15:50.857Z,16.27
2018-05-15T18:18:19.352Z,13.90
2018-05-15T18:20:47.892Z,14.73
2018-05-15T18:23:16.382Z,14.33
2018-05-15T18:25:44.869Z,15.30
2018-05-15T18:28:13.531Z,15.23
2018-05-15T18:30:42.040Z,15.47
2018-05-15T18:33:10.660Z,15.90
2018-05-15T18:35:39.079Z,18.30
2018-05-15T18:38:07.577Z,16.83
2018-05-15T18:40:36.061Z,25.33
2018-05-15T18:43:04.605Z,15.97
2018-05-15T18:45:33.089Z,16.33
2018-05-15T18:48:01.613Z,19.50
2018-05-15T18:50:30.121Z,16.40
2018-05-15T18:52:58.644Z,17.10
2018-05-15T18:55:27.139Z,19.17
2018-05-15T18:57:55.687Z,18.10
2018-05-15T19:00:24.168Z,16.80
2018-05-15T19:02:52.701Z,16.67
2018-05-15T19:05:21.229Z,17.63
2018-05-15T19:07:49.733Z,17.17
2018-05-15T19:10:18.214Z,17.43
2018-05-15T19:12:46.751Z,19.87
2018-05-15T19:15:15.277Z,21.63
2018-05-15T19:17:43.805Z,17.60
2018-05-15T19:20:12.289Z,18.97
2018-05-15T19:22:40.811Z,18.23
2018-05-15T19:25:09.295Z,19.20
2018-05-15T19:27:37.799Z,18.60
2018-05-15T19:30:06.271Z,18.63
2018-05-15T19:32:39.568Z,18.53
2018-05-15T19:35:08.137Z,18.20
2018-05-15T19:37:36.668Z,28.60
2018-05-15T19:40:10.564Z,20.90
2018-05-15T19:42:39.081Z,19.80
2018-05-15T19:45:07.683Z,28.07
2018-05-15T19:47:36.161Z,22.47
2018-05-15T19:50:04.666Z,19.20
2018-05-15T19:52:33.241Z,21.00
2018-05-15T19:55:01.792Z,19.77
2018-05-15T19:57:30.325Z,20.80
2018-05-15T19:59:58.856Z,21.40
2018-05-15T20:02:27.348Z,22.23
2018-05-15T20:04:55.877Z,21.77
2018-05-15T20:07:24.356Z,22.53
2018-05-15T20:09:52.873Z,22.63
2018-05-15T20:12:21.392Z,22.20
2018-05-15T20:14:49.908Z,23.07
2018-05-15T20:17:18.387Z,23.03
2018-05-15T20:19:46.894Z,22.30
2018-05-15T20:22:15.377Z,22.30
2018-05-15T20:24:43.867Z,20.33
2018-05-15T20:27:12.430Z,20.50
2018-05-15T20:29:40.912Z,19.83
2018-05-15T20:32:09.429Z,20.03
2018-05-15T20:34:38.235Z,18.40
2018-05-15T20:37:06.998Z,20.23
2018-05-15T20:39:35.498Z,18.87
2018-05-15T20:42:04.068Z,20.43
2018-05-15T20:44:32.589Z,20.70
2018-05-15T20:47:01.064Z,20.13
2018-05-15T20:49:29.596Z,18.60
2018-05-15T20:51:58.114Z,19.70
2018-05-15T20:54:26.603Z,20.93
2018-05-15T20:56:55.089Z,18.27
2018-05-15T20:59:23.572Z,18.37
2018-05-15T21:01:52.089Z,17.70
2018-05-15T21:04:20.612Z,18.07
2018-05-15T21:06:49.125Z,17.83
2018-05-15T21:09:17.605Z,17.67
2018-05-15T21:11:46.156Z,17.87
2018-05-15T21:14:14.646Z,16.93
2018-05-15T21:16:43.164Z,17.53
2018-05-15T21:19:11.668Z,22.67
2018-05-15T21:21:40.185Z,15.97
2018-05-15T21:24:08.672Z,13.23
2018-05-15T21:26:37.218Z,13.40
2018-05-15T21:29:05.712Z,12.60
2018-05-15T21:31:34.240Z,11.87
2018-05-15T21:34:02.799Z,12.00
2018-05-15T21:36:31.298Z,13.00
2018-05-15T21:38:59.830Z,11.83
2018-05-15T21:41:28.313Z,12.50
2018-05-15T21:43:56.792Z,11.87
2018-05-15T21:46:25.315Z,12.20
2018-05-15T21:48:53.854Z,12.13
2018-05-15T21:51:22.425Z,13.17
2018-05-15T21:53:50.913Z,12.07
2018-05-15T21:56:19.445Z,12.40
2018-05-15T21:58:47.950Z,12.50
2018-05-15T22:01:16.525Z,12.80
2018-05-15T22:03:45.147Z,12.23
2018-05-15T22:06:13.608Z,11.87
2018-05-15T22:08:42.105Z,15.63
2018-05-15T22:11:13.911Z,12.50
2018-05-15T22:13:54.122Z,12.10
2018-05-15T22:16:40.075Z,11.30
2018-05-15T22:19:26.057Z,11.90
2018-05-15T22:22:12.074Z,11.90
2018-05-15T22:24:41.137Z,11.30
2018-05-15T22:27:09.709Z,12.97
2018-05-15T22:29:38.204Z,11.33
2018-05-15T22:32:06.730Z,12.27
2018-05-15T22:34:35.265Z,13.67
2018-05-15T22:37:03.793Z,10.97
2018-05-15T22:39:32.328Z,10.70
2018-05-15T22:42:00.845Z,11.70
2018-05-15T22:44:29.376Z,11.10
2018-05-15T22:46:57.887Z,10.50
2018-05-15T22:49:26.364Z,10.63
2018-05-15T22:51:54.870Z,13.00
2018-05-15T22:54:23.363Z,11.63
2018-05-15T22:56:51.876Z,11.90
2018-05-15T22:59:20.358Z,10.53
2018-05-15T23:01:48.895Z,11.33
2018-05-15T23:04:17.421Z,10.63
2018-05-15T23:06:45.929Z,9.87
2018-05-15T23:09:14.436Z,10.03
2018-05-15T23:11:42.940Z,10.17
2018-05-15T23:14:11.452Z,9.40
2018-05-15T23:16:39.957Z,9.90
2018-05-15T23:19:08.429Z,9.93
2018-05-15T23:21:36.935Z,10.43
2018-05-15T23:24:05.413Z,9.97
2018-05-15T23:26:33.930Z,9.70
2018-05-15T23:29:02.496Z,10.23
2018-05-15T23:31:31.012Z,15.90
2018-05-15T23:33:59.529Z,9.20
2018-05-15T23:36:28.047Z,9.63
2018-05-15T23:38:56.556Z,9.37
2018-05-15T23:41:25.079Z,10.03
2018-05-15T23:43:53.557Z,11.07
2018-05-15T23:46:22.075Z,9.33
2018-05-15T23:48:50.596Z,11.13
2018-05-15T23:51:19.081Z,11.13
2018-05-15T23:53:47.588Z,10.60
2018-05-15T23:56:16.073Z,10.23
2018-05-15T23:58:44.597Z,8.43
